Time;durP1;ratioP1;P1;durP2;ratioP2;P2;SDS_P1;SDS_P2;PMS_P1;PMS_P2;Temp;Humidity;BMP_temperature;BMP_pressure;BME280_temperature;BME280_humidity;BME280_pressure;Samples;Min_cycle;Max_cycle;Signal;HPM_P1;HPM_P2
2023/09/24 00:02:11;;;;;;;0.10;0.10;;;8.00;99.90;;;;;;4969776;28;20046;-83
2023/09/24 00:04:38;;;;;;;1.90;0.47;;;8.00;99.90;;;;;;4970223;28;20036;-83
2023/09/24 00:07:05;;;;;;;0.50;0.50;;;8.00;99.90;;;;;;4944237;28;20385;-82
2023/09/24 00:09:32;;;;;;;0.10;0.10;;;7.90;99.90;;;;;;4950568;28;20083;-82
2023/09/24 00:11:58;;;;;;;0.30;0.30;;;7.80;99.90;;;;;;4957501;28;20053;-83
2023/09/24 00:14:28;;;;;;;0.17;0.15;;;7.80;99.90;;;;;;4952393;28;20037;-82
2023/09/24 00:16:54;;;;;;;0.20;0.17;;;7.80;99.90;;;;;;4943929;28;20039;-82
2023/09/24 00:19:20;;;;;;;0.32;0.32;;;7.80;99.90;;;;;;4958441;28;20371;-82
2023/09/24 00:21:49;;;;;;;0.10;0.10;;;7.80;99.90;;;;;;4965823;28;20035;-83
2023/09/24 00:24:18;;;;;;;0.47;0.47;;;8.00;99.90;;;;;;4977743;28;20035;-83
2023/09/24 00:26:45;;;;;;;0.93;0.60;;;8.00;99.90;;;;;;4974912;28;20475;-82
2023/09/24 00:29:12;;;;;;;0.40;0.40;;;7.90;99.90;;;;;;4969956;28;20488;-83
2023/09/24 00:31:38;;;;;;;0.20;0.20;;;7.90;99.90;;;;;;4971588;28;20038;-80
2023/09/24 00:34:04;;;;;;;2.30;0.55;;;7.90;93.90;;;;;;4959940;28;20055;-82
2023/09/24 00:36:32;;;;;;;0.90;0.85;;;7.70;92.20;;;;;;4973965;28;20103;-82
2023/09/24 00:39:00;;;;;;;0.25;0.25;;;7.80;99.90;;;;;;4943217;28;20039;-81
2023/09/24 00:41:27;;;;;;;0.52;0.52;;;8.00;99.90;;;;;;4951194;28;20146;-82
2023/09/24 00:43:53;;;;;;;0.40;0.40;;;8.00;99.90;;;;;;4964090;28;20036;-81
2023/09/24 00:46:22;;;;;;;0.10;0.10;;;8.10;88.60;;;;;;4980279;28;20039;-82
2023/09/24 00:48:51;;;;;;;0.28;0.28;;;8.00;58.40;;;;;;4982008;28;20031;-82
2023/09/24 00:51:22;;;;;;;0.40;0.30;;;8.00;61.20;;;;;;4978070;28;20046;-82
2023/09/24 00:53:53;;;;;;;0.88;0.57;;;7.90;89.20;;;;;;4978868;28;20030;-82
2023/09/24 00:56:21;;;;;;;1.15;1.10;;;7.90;82.50;;;;;;4955772;28;20043;-82
2023/09/24 00:58:50;;;;;;;0.52;0.50;;;7.90;86.30;;;;;;4966961;28;20039;-82
2023/09/24 01:01:17;;;;;;;0.25;0.25;;;7.90;89.50;;;;;;4950358;28;20058;-82
2023/09/24 01:03:46;;;;;;;0.63;0.63;;;7.70;78.80;;;;;;4960590;28;20042;-81
2023/09/24 01:06:13;;;;;;;0.40;0.40;;;7.60;88.00;;;;;;4977790;28;20042;-82
2023/09/24 01:08:39;;;;;;;0.28;0.28;;;7.50;98.00;;;;;;4977958;28;20364;-82
2023/09/24 01:11:06;;;;;;;0.30;0.30;;;7.40;99.90;;;;;;4980808;28;20388;-82
2023/09/24 01:13:40;;;;;;;0.25;0.25;;;7.40;99.90;;;;;;4976695;28;20066;-82
2023/09/24 01:16:07;;;;;;;0.10;0.10;;;7.40;99.90;;;;;;4968859;28;20043;-82
2023/09/24 01:18:39;;;;;;;0.28;0.28;;;7.40;99.90;;;;;;4971665;28;20042;-81
2023/09/24 01:21:13;;;;;;;1.20;0.70;;;7.40;99.90;;;;;;4972531;28;20042;-81
2023/09/24 01:23:40;;;;;;;0.15;0.15;;;7.30;99.90;;;;;;4951780;28;20050;-82
2023/09/24 01:26:10;;;;;;;0.10;0.10;;;7.20;99.90;;;;;;4944157;28;20051;-82
2023/09/24 01:28:39;;;;;;;0.32;0.32;;;7.30;99.90;;;;;;4981956;28;20034;-82
2023/09/24 01:31:06;;;;;;;0.20;0.20;;;7.30;99.90;;;;;;4967889;28;20042;-82
2023/09/24 01:33:36;;;;;;;0.10;0.10;;;7.30;99.90;;;;;;4965202;28;20353;-82
2023/09/24 01:36:03;;;;;;;0.30;0.30;;;7.20;99.90;;;;;;4973332;28;20039;-81
2023/09/24 01:38:30;;;;;;;1.27;0.95;;;7.40;99.90;;;;;;4975963;28;20031;-82
2023/09/24 01:40:58;;;;;;;0.40;0.40;;;7.40;99.90;;;;;;4950821;28;20039;-82
2023/09/24 01:43:24;;;;;;;0.52;0.47;;;7.40;99.90;;;;;;4966043;28;20041;-82
2023/09/24 01:45:50;;;;;;;0.38;0.38;;;7.40;99.90;;;;;;4974330;28;20031;-82
2023/09/24 01:48:19;;;;;;;0.28;0.28;;;7.40;99.90;;;;;;4955666;28;20034;-82
2023/09/24 01:50:46;;;;;;;0.30;0.30;;;7.30;99.90;;;;;;4963931;28;20062;-81
2023/09/24 01:53:14;;;;;;;1.08;0.75;;;7.30;99.90;;;;;;4968983;28;20034;-84
2023/09/24 01:55:40;;;;;;;0.47;0.47;;;7.40;99.90;;;;;;4945520;28;20043;-81
2023/09/24 01:58:07;;;;;;;0.98;0.90;;;7.40;99.90;;;;;;4970400;28;20484;-81
2023/09/24 02:00:33;;;;;;;0.20;0.20;;;7.30;99.90;;;;;;4969403;28;20530;-82
2023/09/24 02:03:05;;;;;;;0.30;0.30;;;7.10;99.10;;;;;;4980198;28;20027;-83
2023/09/24 02:05:36;;;;;;;0.35;0.35;;;7.00;99.90;;;;;;4947648;28;20047;-82
2023/09/24 02:08:08;;;;;;;2.53;0.55;;;7.00;99.90;;;;;;4962754;28;20031;-83
2023/09/24 02:10:35;;;;;;;0.10;0.10;;;6.90;99.90;;;;;;4958436;28;20036;-82
2023/09/24 02:13:03;;;;;;;0.10;0.10;;;6.90;99.90;;;;;;4953686;28;20883;-85
2023/09/24 02:15:29;;;;;;;0.50;0.50;;;6.90;99.90;;;;;;4974814;28;20035;-83
2023/09/24 02:17:55;;;;;;;0.40;0.25;;;6.80;99.90;;;;;;4971860;28;20030;-83
2023/09/24 02:22:59;;;;;;;0.75;0.50;;;6.90;99.90;;;;;;4969058;28;20059;-83
2023/09/24 02:25:26;;;;;;;0.20;0.20;;;7.00;99.90;;;;;;4948181;28;20127;-82
2023/09/24 02:27:53;;;;;;;0.15;0.15;;;7.10;99.90;;;;;;4958606;28;20049;-81
2023/09/24 02:30:24;;;;;;;0.65;0.65;;;7.00;99.90;;;;;;4968964;28;20038;-80
2023/09/24 02:32:50;;;;;;;0.75;0.73;;;6.90;99.90;;;;;;4942180;28;20072;-81
2023/09/24 02:35:17;;;;;;;0.10;0.10;;;6.80;99.90;;;;;;4968193;28;20042;-82
2023/09/24 02:37:45;;;;;;;4.68;0.47;;;6.90;99.90;;;;;;4963217;28;20031;-81
2023/09/24 02:40:34;;;;;;;2.22;0.57;;;7.00;99.90;;;;;;4972579;28;20035;-81
2023/09/24 02:43:01;;;;;;;0.10;0.10;;;7.00;99.90;;;;;;4972395;28;20062;-82
2023/09/24 02:45:32;;;;;;;0.10;0.10;;;6.90;99.90;;;;;;4963011;28;20053;-82
2023/09/24 02:47:59;;;;;;;1.20;0.85;;;6.90;99.90;;;;;;4956164;28;20041;-82
2023/09/24 02:50:28;;;;;;;1.13;1.08;;;6.90;99.90;;;;;;4930113;28;20042;-82
2023/09/24 02:53:26;;;;;;;1.10;0.55;;;6.80;99.90;;;;;;4970914;28;20053;-83
2023/09/24 02:55:53;;;;;;;1.27;1.05;;;6.70;99.90;;;;;;4973697;28;20046;-82
2023/09/24 02:58:19;;;;;;;0.10;0.10;;;6.60;99.90;;;;;;4961926;28;20050;-83
2023/09/24 03:00:45;;;;;;;1.30;0.47;;;6.60;99.90;;;;;;4956128;28;20047;-82
2023/09/24 03:03:13;;;;;;;0.10;0.10;;;6.70;99.90;;;;;;4979719;28;20332;-82
2023/09/24 03:05:39;;;;;;;0.30;0.20;;;6.80;99.90;;;;;;4970889;28;20460;-82
2023/09/24 03:08:08;;;;;;;0.30;0.30;;;6.90;99.90;;;;;;4966746;28;20046;-82
2023/09/24 03:10:35;;;;;;;0.45;0.45;;;6.90;99.90;;;;;;4966963;28;20045;-81
2023/09/24 03:13:04;;;;;;;0.63;0.40;;;7.00;99.90;;;;;;4954741;28;20042;-81
2023/09/24 03:15:31;;;;;;;1.33;1.23;;;7.10;99.90;;;;;;4964090;28;20042;-80
2023/09/24 03:17:59;;;;;;;0.17;0.17;;;7.10;99.90;;;;;;4963401;28;20050;-81
2023/09/24 03:20:26;;;;;;;0.30;0.30;;;6.90;82.00;;;;;;4974099;28;20351;-81
2023/09/24 03:22:55;;;;;;;0.40;0.40;;;6.80;79.20;;;;;;4955143;28;20042;-81
2023/09/24 03:25:26;;;;;;;0.43;0.43;;;6.60;99.70;;;;;;4977209;28;20050;-81
2023/09/24 03:27:53;;;;;;;;;;;6.50;99.90;;;;;;4927232;28;20039;-81
2023/09/24 03:30:21;;;;;;;3.00;0.68;;;6.50;99.90;;;;;;4962796;28;19910;-81
2023/09/24 03:32:48;;;;;;;0.32;0.30;;;6.60;99.90;;;;;;4968298;28;20058;-81
2023/09/24 03:35:29;;;;;;;0.70;0.70;;;6.70;99.90;;;;;;4919580;28;20062;-81
2023/09/24 03:38:02;;;;;;;0.20;0.20;;;6.70;99.90;;;;;;4974277;28;20063;-82
2023/09/24 03:40:29;;;;;;;0.22;0.22;;;6.50;99.90;;;;;;4976345;28;20030;-81
2023/09/24 03:42:55;;;;;;;0.30;0.30;;;6.40;99.90;;;;;;4971394;28;20050;-81
2023/09/24 03:45:23;;;;;;;0.50;0.50;;;6.30;99.90;;;;;;4960117;28;20046;-81
2023/09/24 03:47:49;;;;;;;0.30;0.30;;;6.30;99.90;;;;;;4946074;28;20043;-82
2023/09/24 03:50:17;;;;;;;0.10;0.10;;;6.40;99.90;;;;;;4967410;28;20031;-81
2023/09/24 03:52:48;;;;;;;0.45;0.45;;;6.50;99.90;;;;;;4972366;28;20037;-81
2023/09/24 03:55:16;;;;;;;0.47;0.47;;;6.50;99.90;;;;;;4954392;28;20043;-81
2023/09/24 03:57:43;;;;;;;0.63;0.50;;;6.50;99.90;;;;;;4965440;28;20083;-81
2023/09/24 04:00:16;;;;;;;0.30;0.30;;;6.40;99.90;;;;;;4943294;28;20043;-81
2023/09/24 04:02:46;;;;;;;0.25;0.25;;;6.30;99.90;;;;;;4980373;28;20352;-82
2023/09/24 04:05:28;;;;;;;0.20;0.20;;;6.20;99.90;;;;;;4969203;28;20377;-82
2023/09/24 04:08:08;;;;;;;0.10;0.10;;;6.10;99.90;;;;;;4966722;28;20122;-81
2023/09/24 04:10:35;;;;;;;0.30;0.30;;;6.10;99.90;;;;;;4960986;28;20046;-80
2023/09/24 04:13:01;;;;;;;0.63;0.63;;;6.20;99.90;;;;;;4969420;28;20039;-83
2023/09/24 04:15:28;;;;;;;0.10;0.10;;;6.30;99.90;;;;;;4967270;28;20050;-80
2023/09/24 04:17:56;;;;;;;0.15;0.15;;;6.40;99.90;;;;;;4964775;28;20039;-81
2023/09/24 04:20:29;;;;;;;0.52;0.52;;;6.50;99.90;;;;;;4971048;28;20039;-83
2023/09/24 04:22:55;;;;;;;0.28;0.28;;;6.50;99.90;;;;;;4972110;28;20069;-82
2023/09/24 04:25:22;;;;;;;0.47;0.47;;;6.60;99.90;;;;;;4974693;28;20035;-82
2023/09/24 04:27:49;;;;;;;0.38;0.38;;;6.60;96.70;;;;;;4978179;28;20050;-82
2023/09/24 04:30:19;;;;;;;0.10;0.10;;;6.40;55.30;;;;;;4979502;28;20037;-82
2023/09/24 04:32:51;;;;;;;0.25;0.25;;;6.20;51.90;;;;;;4972873;28;20051;-81
2023/09/24 04:35:21;;;;;;;0.10;0.10;;;6.20;86.20;;;;;;4965514;28;20047;-81
2023/09/24 04:37:48;;;;;;;0.65;0.65;;;6.20;99.80;;;;;;4973015;28;20121;-81
2023/09/24 04:40:15;;;;;;;0.88;0.80;;;6.10;99.90;;;;;;4973513;28;20046;-81
2023/09/24 04:42:42;;;;;;;0.10;0.10;;;6.10;99.90;;;;;;4967117;28;20046;-81
2023/09/24 04:45:13;;;;;;;0.30;0.30;;;6.00;99.90;;;;;;4965658;28;20058;-81
2023/09/24 04:47:40;;;;;;;0.20;0.20;;;5.90;99.90;;;;;;4978097;28;20383;-82
2023/09/24 04:50:07;;;;;;;0.30;0.30;;;5.80;99.90;;;;;;4973529;28;20049;-82
2023/09/24 04:52:51;;;;;;;1.15;0.88;;;5.80;99.90;;;;;;4968613;28;20066;-82
2023/09/24 04:55:26;;;;;;;0.38;0.38;;;5.80;99.90;;;;;;4964331;28;20044;-82
2023/09/24 04:57:53;;;;;;;0.10;0.10;;;5.70;99.90;;;;;;4973071;28;20039;-82
2023/09/24 05:00:19;;;;;;;0.47;0.47;;;5.70;99.90;;;;;;4963502;28;20066;-81
2023/09/24 05:03:31;;;;;;;0.30;0.30;;;5.70;99.90;;;;;;4957573;28;20069;-82
2023/09/24 05:05:57;;;;;;;0.05;0.05;;;5.70;99.90;;;;;;4948007;28;20047;-82
2023/09/24 05:08:30;;;;;;;0.20;0.20;;;5.70;99.90;;;;;;4973968;28;20054;-82
2023/09/24 05:10:56;;;;;;;0.10;0.10;;;5.80;99.90;;;;;;4980062;28;20026;-82
2023/09/24 05:13:22;;;;;;;12.25;1.38;;;6.00;99.90;;;;;;4975429;28;20057;-84
2023/09/24 05:15:53;;;;;;;0.15;0.15;;;6.10;99.90;;;;;;4969740;28;20030;-82
2023/09/24 05:18:23;;;;;;;0.30;0.30;;;6.20;99.90;;;;;;4969352;28;20031;-82
2023/09/24 05:20:59;;;;;;;0.20;0.20;;;6.20;99.90;;;;;;4974997;28;20034;-80
2023/09/24 05:23:29;;;;;;;0.50;0.50;;;6.30;99.90;;;;;;4968149;28;20043;-82
2023/09/24 05:26:21;;;;;;;0.10;0.10;;;6.20;57.90;;;;;;4960758;28;20491;-82
2023/09/24 05:28:53;;;;;;;0.20;0.20;;;6.00;40.10;;;;;;4953795;28;20054;-82
2023/09/24 05:31:27;;;;;;;0.20;0.20;;;5.80;50.60;;;;;;4977169;28;20083;-81
2023/09/24 05:33:53;;;;;;;0.38;0.38;;;5.70;74.90;;;;;;4968610;28;20058;-81
2023/09/24 05:36:38;;;;;;;0.52;0.52;;;5.80;97.60;;;;;;4960701;28;20047;-82
2023/09/24 05:39:04;;;;;;;0.40;0.40;;;5.80;99.90;;;;;;4960414;28;20050;-83
2023/09/24 05:41:31;;;;;;;0.32;0.32;;;5.90;99.90;;;;;;4954454;28;20039;-82
2023/09/24 05:44:02;;;;;;;1.48;0.95;;;6.00;99.90;;;;;;4955142;28;20366;-82
2023/09/24 05:46:29;;;;;;;0.10;0.10;;;6.10;99.90;;;;;;4972608;28;20476;-81
2023/09/24 05:49:20;;;;;;;0.10;0.10;;;6.20;99.90;;;;;;4968075;28;20041;-81
2023/09/24 05:51:49;;;;;;;0.57;0.57;;;6.30;99.90;;;;;;4971755;28;20034;-83
2023/09/24 05:54:18;;;;;;;0.20;0.20;;;6.20;99.90;;;;;;4976644;28;20130;-83
2023/09/24 05:56:45;;;;;;;0.63;0.63;;;6.30;99.90;;;;;;4974193;28;20038;-83
2023/09/24 05:59:11;;;;;;;0.20;0.20;;;6.40;99.90;;;;;;4947014;28;20043;-83
2023/09/24 06:01:39;;;;;;;0.52;0.47;;;6.60;99.90;;;;;;4953573;28;20032;-82
2023/09/24 06:04:05;;;;;;;0.80;0.65;;;6.70;99.90;;;;;;4958475;28;20044;-83
2023/09/24 06:06:31;;;;;;;0.10;0.10;;;6.80;98.30;;;;;;4969890;28;20035;-82
2023/09/24 06:08:57;;;;;;;0.77;0.77;;;6.80;95.50;;;;;;4959915;28;20026;-83
2023/09/24 06:11:24;;;;;;;0.35;0.30;;;6.90;91.30;;;;;;4972914;28;20038;-83
2023/09/24 06:13:50;;;;;;;0.10;0.10;;;6.90;93.60;;;;;;4962652;28;20042;-82
2023/09/24 06:16:16;;;;;;;0.38;0.38;;;7.00;99.60;;;;;;4953986;28;20445;-82
2023/09/24 06:18:42;;;;;;;0.35;0.35;;;7.10;99.90;;;;;;4970594;28;20035;-82
2023/09/24 06:21:16;;;;;;;0.30;0.30;;;7.30;99.90;;;;;;4956575;28;20033;-83
2023/09/24 06:24:21;;;;;;;;;;;;;;;;;;;;;
2023/09/24 06:26:58;;;;;;;0.47;0.47;;;7.50;99.90;;;;;;4963984;28;20046;-82
2023/09/24 06:30:05;;;;;;;0.45;0.45;;;7.70;98.10;;;;;;4959001;28;20480;-82
2023/09/24 06:32:43;;;;;;;0.75;0.52;;;7.80;94.00;;;;;;4950552;28;20171;-83
2023/09/24 06:35:09;;;;;;;0.20;0.20;;;8.00;94.90;;;;;;4966753;28;20057;-83
2023/09/24 06:37:38;;;;;;;0.75;0.70;;;8.20;93.60;;;;;;4981387;28;20043;-82
2023/09/24 06:40:05;;;;;;;0.65;0.60;;;8.40;88.80;;;;;;4975375;28;20321;-83
2023/09/24 06:42:31;;;;;;;0.88;0.68;;;8.60;85.40;;;;;;4970852;28;20395;-83
2023/09/24 06:44:58;;;;;;;0.35;0.35;;;8.80;77.10;;;;;;4949676;28;20043;-85
2023/09/24 06:47:30;;;;;;;0.52;0.47;;;9.10;42.80;;;;;;4933206;29;20046;-84
2023/09/24 06:49:56;;;;;;;0.93;0.77;;;9.30;49.80;;;;;;4951824;29;20035;-85
2023/09/24 06:52:22;;;;;;;0.68;0.68;;;9.60;37.60;;;;;;4956059;28;20039;-84
2023/09/24 06:55:00;;;;;;;0.82;0.80;;;9.90;22.50;;;;;;4976194;28;20030;-84
2023/09/24 07:01:31;;;;;;;0.55;0.52;;;10.60;1.00;;;;;;4922524;29;20146;-85
2023/09/24 07:04:04;;;;;;;0.60;0.60;;;10.90;1.00;;;;;;4896878;29;20374;-85
2023/09/24 07:06:31;;;;;;;;;;;11.10;1.00;;;;;;4895893;29;20052;-84
2023/09/24 07:09:05;;;;;;;0.22;0.22;;;11.20;1.00;;;;;;4902616;29;19932;-83
2023/09/24 07:11:34;;;;;;;0.20;0.20;;;11.50;1.00;;;;;;4895840;29;20490;-85
2023/09/24 07:14:01;;;;;;;4.07;0.82;;;11.60;1.00;;;;;;4895969;29;20590;-85
2023/09/24 07:16:28;;;;;;;3.42;1.95;;;11.70;1.00;;;;;;4894067;29;20055;-84
2023/09/24 07:18:57;;;;;;;0.43;0.38;;;11.80;1.00;;;;;;4896621;29;20147;-85
2023/09/24 07:21:25;;;;;;;0.77;0.57;;;12.10;1.00;;;;;;4920432;29;20032;-88
2023/09/24 07:23:58;;;;;;;1.55;0.40;;;12.10;1.00;;;;;;4922717;29;20056;-88
2023/09/24 07:26:28;;;;;;;2.33;0.98;;;12.20;1.00;;;;;;4898058;29;20043;-90
2023/09/24 07:28:54;;;;;;;0.30;0.30;;;12.40;99.90;;;;;;4895849;29;20032;-89
2023/09/24 07:31:25;;;;;;;0.30;0.30;;;12.40;1.00;;;;;;4923200;29;20459;-82
2023/09/24 07:33:59;;;;;;;0.13;0.13;;;12.50;99.90;;;;;;4925086;29;20089;-87
2023/09/24 07:36:26;;;;;;;0.30;0.30;;;12.50;99.90;;;;;;4933493;29;20052;-89
2023/09/24 07:38:52;;;;;;;0.30;0.30;;;12.50;99.90;;;;;;4980321;28;20046;-86
2023/09/24 07:41:21;;;;;;;3.40;0.85;;;12.80;99.90;;;;;;4970377;28;20061;-88
2023/09/24 07:43:47;;;;;;;0.22;0.22;;;12.90;99.90;;;;;;4985630;28;20043;-86
2023/09/24 07:46:16;;;;;;;0.50;0.50;;;13.20;99.90;;;;;;4990377;28;20037;-87
2023/09/24 07:48:44;;;;;;;0.50;0.22;;;13.60;99.90;;;;;;4949638;28;20046;-88
2023/09/24 07:51:11;;;;;;;0.10;0.10;;;14.00;99.90;;;;;;4972190;28;20384;-88
2023/09/24 07:53:37;;;;;;;3.65;0.30;;;14.30;99.90;;;;;;4976061;28;20039;-89
2023/09/24 07:56:11;;;;;;;3.30;0.73;;;14.50;55.30;;;;;;4973541;28;20033;-89
2023/09/24 07:58:38;;;;;;;0.28;0.28;;;14.30;44.20;;;;;;4976850;28;20492;-84
2023/09/24 08:01:13;;;;;;;0.30;0.30;;;14.40;47.60;;;;;;4947896;28;20030;-85
2023/09/24 08:06:48;;;;;;;0.38;0.30;;;14.60;2.70;;;;;;4972585;28;20114;-84
2023/09/24 08:09:14;;;;;;;2.42;0.38;;;14.50;36.10;;;;;;4953667;28;20062;-85
2023/09/24 08:11:47;;;;;;;0.20;0.20;;;14.80;1.00;;;;;;4975698;28;20039;-85
2023/09/24 08:14:28;;;;;;;0.35;0.35;;;14.90;1.00;;;;;;4971094;28;20473;-86
2023/09/24 08:16:54;;;;;;;1.95;0.45;;;15.00;1.00;;;;;;4951475;28;20038;-85
2023/09/24 08:19:21;;;;;;;0.32;0.20;;;15.00;1.00;;;;;;4974335;28;20034;-85
2023/09/24 08:21:49;;;;;;;0.85;0.63;;;14.90;1.00;;;;;;4969287;28;20039;-86
2023/09/24 08:24:40;;;;;;;0.32;0.32;;;14.80;1.00;;;;;;4972807;28;20469;-85
2023/09/24 08:27:18;;;;;;;0.30;0.30;;;15.10;1.00;;;;;;4958237;28;20046;-85
2023/09/24 08:29:44;;;;;;;0.10;0.10;;;15.80;1.00;;;;;;4975311;28;20036;-83
2023/09/24 08:32:10;;;;;;;1.75;0.63;;;15.90;99.90;;;;;;4971120;28;20049;-84
2023/09/24 08:34:36;;;;;;;0.17;0.17;;;15.60;1.00;;;;;;4971454;28;20055;-84
2023/09/24 08:37:03;;;;;;;0.20;0.20;;;16.10;1.00;;;;;;4973797;28;20046;-84
2023/09/24 08:39:29;;;;;;;0.20;0.20;;;16.40;99.90;;;;;;4970300;28;20463;-84
2023/09/24 08:41:56;;;;;;;1.85;0.80;;;16.80;1.00;;;;;;4963885;28;20456;-84
2023/09/24 08:44:24;;;;;;;2.60;0.30;;;17.30;99.90;;;;;;4965330;28;19914;-85
2023/09/24 08:46:51;;;;;;;0.10;0.10;;;17.80;99.90;;;;;;4957584;28;20107;-85
2023/09/24 08:49:18;;;;;;;0.20;0.20;;;18.00;99.90;;;;;;4976756;28;20102;-84
2023/09/24 08:51:46;;;;;;;8.15;1.05;;;18.20;99.90;;;;;;4972988;28;20388;-84
2023/09/24 08:54:13;;;;;;;0.30;0.30;;;18.00;99.90;;;;;;4973620;28;20103;-83
2023/09/24 08:56:39;;;;;;;0.20;0.20;;;17.80;99.90;;;;;;4972692;28;20035;-84
2023/09/24 08:59:06;;;;;;;0.57;0.55;;;17.30;99.90;;;;;;4945789;28;20419;-83
2023/09/24 09:01:32;;;;;;;0.35;0.35;;;16.90;99.90;;;;;;4966469;28;20466;-83
2023/09/24 09:03:59;;;;;;;0.40;0.40;;;16.90;99.90;;;;;;4971069;28;20057;-84
2023/09/24 09:06:36;;;;;;;0.43;0.43;;;17.40;99.90;;;;;;4957914;28;20038;-83
2023/09/24 09:09:03;;;;;;;0.15;0.15;;;18.10;99.90;;;;;;4955860;28;20049;-82
2023/09/24 09:11:46;;;;;;;0.25;0.25;;;18.50;99.90;;;;;;4967260;28;20120;-83
2023/09/24 09:14:13;;;;;;;0.10;0.10;;;18.00;99.90;;;;;;4977882;28;20480;-84
2023/09/24 09:16:59;;;;;;;0.45;0.20;;;18.60;99.90;;;;;;4974142;28;20023;-84
2023/09/24 09:19:27;;;;;;;0.20;0.20;;;18.70;99.90;;;;;;4955652;28;20045;-83
2023/09/24 09:21:53;;;;;;;0.10;0.10;;;18.40;99.90;;;;;;4975220;28;20045;-84
2023/09/24 09:24:24;;;;;;;2.38;0.40;;;17.90;99.90;;;;;;4971456;28;20055;-83
2023/09/24 09:26:56;;;;;;;0.40;0.40;;;17.90;99.90;;;;;;4969389;28;20046;-83
2023/09/24 09:29:24;;;;;;;0.13;0.13;;;18.60;99.90;;;;;;4978952;28;20440;-83
2023/09/24 09:31:50;;;;;;;2.50;0.75;;;18.60;99.90;;;;;;4979375;28;20034;-84
2023/09/24 09:34:17;;;;;;;0.32;0.32;;;18.40;99.90;;;;;;4973456;28;20070;-83
2023/09/24 09:36:43;;;;;;;0.75;0.40;;;18.10;99.90;;;;;;4974938;28;20046;-84
2023/09/24 09:39:09;;;;;;;0.15;0.15;;;18.40;99.90;;;;;;4944318;28;20047;-84
2023/09/24 09:41:40;;;;;;;0.30;0.28;;;18.90;99.90;;;;;;4972064;28;20035;-84
2023/09/24 09:44:07;;;;;;;;;;;18.90;99.90;;;;;;4967442;28;20051;-85
2023/09/24 09:46:43;;;;;;;0.10;0.10;;;18.60;99.90;;;;;;4959534;28;19916;-85
2023/09/24 09:49:12;;;;;;;0.10;0.10;;;18.70;99.90;;;;;;4969225;28;20054;-84
2023/09/24 09:51:48;;;;;;;0.35;0.35;;;18.40;99.90;;;;;;4967113;28;20133;-85
2023/09/24 09:54:16;;;;;;;0.73;0.68;;;17.80;99.90;;;;;;4982124;28;20396;-84
2023/09/24 09:56:42;;;;;;;0.47;0.47;;;17.50;99.90;;;;;;4978455;28;20471;-84
2023/09/24 09:59:09;;;;;;;0.30;0.30;;;17.50;99.90;;;;;;4975789;28;20042;-85
2023/09/24 10:01:36;;;;;;;0.10;0.10;;;17.70;99.90;;;;;;4978603;28;20053;-86
2023/09/24 10:04:05;;;;;;;0.65;0.45;;;17.90;99.90;;;;;;4958607;28;20058;-85
2023/09/24 10:06:34;;;;;;;0.03;0.03;;;17.80;99.90;;;;;;4958309;28;20487;-86
2023/09/24 10:09:01;;;;;;;0.20;0.15;;;17.90;99.90;;;;;;4969362;28;20031;-85
2023/09/24 10:11:30;;;;;;;0.10;0.10;;;17.90;99.90;;;;;;4971744;28;20038;-84
2023/09/24 10:13:58;;;;;;;0.20;0.20;;;17.80;99.90;;;;;;4975269;28;20050;-83
2023/09/24 10:16:37;;;;;;;0.10;0.10;;;17.90;99.90;;;;;;4984121;28;20046;-85
2023/09/24 10:19:13;;;;;;;0.10;0.10;;;17.80;99.90;;;;;;4969971;28;20062;-86
2023/09/24 10:21:44;;;;;;;0.20;0.20;;;17.80;99.90;;;;;;4987040;28;20039;-84
2023/09/24 10:24:13;;;;;;;0.10;0.10;;;17.90;99.90;;;;;;4971344;28;20043;-85
2023/09/24 10:27:06;;;;;;;0.20;0.20;;;17.80;99.90;;;;;;4961637;28;20050;-84
2023/09/24 10:29:55;;;;;;;0.20;0.20;;;18.10;99.90;;;;;;4954548;28;20070;-86
2023/09/24 10:32:22;;;;;;;0.10;0.10;;;18.40;99.40;;;;;;4970015;28;20039;-86
2023/09/24 10:34:54;;;;;;;0.75;0.55;;;18.40;79.30;;;;;;4946965;28;20058;-86
2023/09/24 10:37:23;;;;;;;0.25;0.25;;;18.30;92.40;;;;;;4963807;28;20057;-86
2023/09/24 10:40:04;;;;;;;0.20;0.20;;;18.30;66.10;;;;;;4980451;28;20054;-86
2023/09/24 10:42:35;;;;;;;0.45;0.45;;;18.40;55.20;;;;;;4954613;28;20046;-86
2023/09/24 10:45:07;;;;;;;0.20;0.20;;;18.50;54.80;;;;;;4982550;28;20148;-87
2023/09/24 10:47:38;;;;;;;0.57;0.30;;;17.90;64.70;;;;;;4970468;28;20038;-87
2023/09/24 10:50:13;;;;;;;0.40;0.40;;;17.80;80.90;;;;;;4969027;28;20405;-87
2023/09/24 10:52:59;;;;;;;0.10;0.10;;;18.10;92.80;;;;;;4965468;28;20107;-88
2023/09/24 10:55:33;;;;;;;0.35;0.30;;;18.40;43.70;;;;;;4952548;28;20050;-86
2023/09/24 10:58:01;;;;;;;2.92;0.82;;;18.40;57.40;;;;;;4975140;28;20045;-83
2023/09/24 11:00:29;;;;;;;0.90;0.35;;;18.70;41.20;;;;;;4962818;28;20034;-84
2023/09/24 11:03:07;;;;;;;0.10;0.10;;;18.90;35.80;;;;;;4966214;28;20492;-87
2023/09/24 11:05:47;;;;;;;0.10;0.10;;;19.20;16.00;;;;;;4974868;28;20039;-86
2023/09/24 11:08:15;;;;;;;0.13;0.13;;;18.90;12.50;;;;;;4957365;28;20042;-86
2023/09/24 11:10:47;;;;;;;0.55;0.45;;;18.80;26.70;;;;;;4981091;28;20046;-85
2023/09/24 11:13:13;;;;;;;0.15;0.15;;;19.00;38.70;;;;;;4974693;28;20038;-85
2023/09/24 11:15:40;;;;;;;0.10;0.10;;;19.10;33.20;;;;;;4973171;28;20051;-85
2023/09/24 11:18:06;;;;;;;0.10;0.10;;;19.20;32.20;;;;;;4955468;28;20069;-87
2023/09/24 11:20:34;;;;;;;0.10;0.10;;;19.20;29.00;;;;;;4980135;28;20467;-84
2023/09/24 11:23:02;;;;;;;0.10;0.10;;;19.40;12.30;;;;;;4973407;28;20050;-84
2023/09/24 11:25:29;;;;;;;0.30;0.30;;;19.50;9.40;;;;;;4955383;28;20062;-85
2023/09/24 11:27:57;;;;;;;0.95;0.40;;;19.50;1.00;;;;;;4973565;28;20035;-83
2023/09/24 11:30:27;;;;;;;0.57;0.10;;;19.20;1.00;;;;;;4959830;28;20047;-86
2023/09/24 11:32:53;;;;;;;0.80;0.20;;;19.00;1.00;;;;;;4970695;28;20390;-86
2023/09/24 11:35:22;;;;;;;0.28;0.28;;;19.00;15.40;;;;;;4961875;28;20038;-83
2023/09/24 11:37:56;;;;;;;0.50;0.38;;;19.30;1.80;;;;;;4972978;28;20058;-85
2023/09/24 11:40:24;;;;;;;0.45;0.20;;;19.10;14.00;;;;;;4974371;28;20042;-85
2023/09/24 11:42:58;;;;;;;1.38;0.57;;;19.40;23.90;;;;;;4973122;28;20071;-84
2023/09/24 11:45:50;;;;;;;0.20;0.20;;;19.70;2.60;;;;;;4960534;28;20062;-87
2023/09/24 11:48:19;;;;;;;0.45;0.20;;;19.90;1.00;;;;;;4976002;28;20046;-84
2023/09/24 11:50:50;;;;;;;0.30;0.30;;;19.90;1.00;;;;;;4955582;28;20429;-84
2023/09/24 11:53:19;;;;;;;0.20;0.20;;;19.80;1.00;;;;;;4965616;28;20043;-85
2023/09/24 11:55:45;;;;;;;0.10;0.10;;;19.70;1.00;;;;;;4956509;28;20027;-85
2023/09/24 11:58:11;;;;;;;0.10;0.10;;;19.60;1.00;;;;;;4957084;28;20038;-85
2023/09/24 12:00:38;;;;;;;0.10;0.10;;;19.60;1.00;;;;;;4962743;28;20051;-87
2023/09/24 12:03:06;;;;;;;0.10;0.10;;;19.60;1.00;;;;;;4951218;28;20082;-85
2023/09/24 12:05:33;;;;;;;0.10;0.10;;;19.70;1.00;;;;;;4960886;28;20045;-84
2023/09/24 12:08:03;;;;;;;0.10;0.10;;;19.90;1.00;;;;;;4973338;28;20042;-87
2023/09/24 12:10:30;;;;;;;0.00;0.00;;;19.80;1.00;;;;;;4970859;28;20030;-84
2023/09/24 12:13:02;;;;;;;0.10;0.10;;;19.90;1.00;;;;;;4973012;28;20047;-85
2023/09/24 12:15:31;;;;;;;0.10;0.10;;;20.00;4.10;;;;;;4934006;28;20039;-85
2023/09/24 12:17:59;;;;;;;0.20;0.20;;;20.10;1.00;;;;;;4950859;28;20035;-87
2023/09/24 12:20:26;;;;;;;0.10;0.10;;;20.10;1.00;;;;;;4958303;28;20030;-85
2023/09/24 12:22:52;;;;;;;0.15;0.15;;;20.30;1.00;;;;;;4969676;28;20035;-86
2023/09/24 12:25:19;;;;;;;0.17;0.17;;;20.20;1.00;;;;;;4978652;28;20384;-83
2023/09/24 12:27:45;;;;;;;0.47;0.47;;;20.20;1.00;;;;;;4979321;28;20030;-82
2023/09/24 12:30:12;;;;;;;0.55;0.40;;;20.40;1.00;;;;;;4976273;28;20472;-82
2023/09/24 12:32:39;;;;;;;0.30;0.30;;;20.50;1.00;;;;;;4961008;28;20365;-85
2023/09/24 12:35:07;;;;;;;0.20;0.20;;;20.60;1.00;;;;;;4969224;28;20283;-85
2023/09/24 12:37:36;;;;;;;;;;;20.50;1.00;;;;;;4979255;28;20715;-83
2023/09/24 12:40:10;;;;;;;0.10;0.10;;;20.60;1.00;;;;;;4976043;28;19924;-85
2023/09/24 12:42:41;;;;;;;0.10;0.10;;;20.60;1.00;;;;;;4975337;28;20479;-85
2023/09/24 12:45:09;;;;;;;0.10;0.10;;;20.70;1.00;;;;;;4953998;28;20258;-85
2023/09/24 12:47:36;;;;;;;0.98;0.43;;;20.30;1.00;;;;;;4985175;28;20045;-83
2023/09/24 12:50:10;;;;;;;0.30;0.30;;;20.10;1.00;;;;;;4977252;28;20035;-86
2023/09/24 12:52:41;;;;;;;0.43;0.43;;;20.00;1.00;;;;;;4953414;28;20063;-84
2023/09/24 12:55:10;;;;;;;4.10;1.20;;;20.00;1.00;;;;;;4957313;28;20212;-86
2023/09/24 12:57:37;;;;;;;0.15;0.15;;;20.10;1.00;;;;;;4959425;28;20074;-85
2023/09/24 13:00:11;;;;;;;0.10;0.10;;;20.00;1.00;;;;;;4970349;28;20035;-84
2023/09/24 13:02:42;;;;;;;0.10;0.10;;;20.00;1.00;;;;;;4972027;28;20045;-85
2023/09/24 13:05:09;;;;;;;0.15;0.15;;;20.10;1.00;;;;;;4974641;28;20480;-85
2023/09/24 13:07:35;;;;;;;0.30;0.13;;;20.20;1.00;;;;;;4955670;28;20515;-86
2023/09/24 13:10:04;;;;;;;0.20;0.20;;;20.20;1.00;;;;;;4944424;28;20047;-84
2023/09/24 13:12:31;;;;;;;0.00;0.00;;;20.20;1.00;;;;;;4980578;28;20050;-86
2023/09/24 13:14:57;;;;;;;0.50;0.50;;;20.30;1.00;;;;;;4957327;28;20118;-82
2023/09/24 13:17:23;;;;;;;0.17;0.10;;;20.30;1.00;;;;;;4960198;28;20034;-84
2023/09/24 13:19:49;;;;;;;0.57;0.57;;;20.30;1.00;;;;;;4973656;28;20035;-87